Time;durP1;ratioP1;P1;durP2;ratioP2;P2;SDS_P1;SDS_P2;PMS_P1;PMS_P2;Temp;Humidity;BMP_temperature;BMP_pressure;BME280_temperature;BME280_humidity;BME280_pressure;Samples;Min_cycle;Max_cycle;Signal;HPM_P1;HPM_P2
2023/11/14 00:03:51;;;;;;;1999.90;999.90;;;;;;;17.29;65.67;99927.88;10339826;28;20133;-66
2023/11/14 00:08:54;;;;;;;1999.90;999.90;;;;;;;17.51;64.82;99937.97;10339462;28;20573;-66
2023/11/14 00:13:56;;;;;;;1999.90;999.90;;;;;;;18.00;63.65;99945.44;10339474;28;20054;-66
2023/11/14 00:18:59;;;;;;;1999.90;999.90;;;;;;;17.72;64.19;99935.00;10339460;28;20050;-65
2023/11/14 00:24:01;;;;;;;1999.90;999.90;;;;;;;17.33;65.42;99937.16;10339066;28;20436;-65
2023/11/14 00:29:04;;;;;;;1999.90;999.90;;;;;;;17.48;65.17;99930.34;10339090;28;20134;-65
2023/11/14 00:34:06;;;;;;;1999.90;999.90;;;;;;;17.19;65.39;99952.59;10338675;28;20457;-66
2023/11/14 00:39:09;;;;;;;1999.90;999.90;;;;;;;18.15;63.48;99945.69;10338440;28;20073;-65
2023/11/14 00:44:11;;;;;;;1999.90;999.90;;;;;;;17.68;63.82;99951.34;10338404;28;20129;-66
2023/11/14 00:49:14;;;;;;;1999.90;999.90;;;;;;;17.53;64.71;99930.72;10337909;28;20417;-65
2023/11/14 00:54:16;;;;;;;1999.90;999.90;;;;;;;17.31;66.41;99928.56;10337875;28;20054;-65
2023/11/14 00:59:20;;;;;;;1999.90;999.90;;;;;;;17.86;64.96;99943.34;10337625;28;20398;-66
2023/11/14 01:04:22;;;;;;;1999.90;999.90;;;;;;;17.55;64.73;99946.44;10320405;28;20131;-66
2023/11/14 01:09:25;;;;;;;1999.90;999.90;;;;;;;18.19;63.66;99947.88;10336343;28;20046;-65
2023/11/14 01:14:27;;;;;;;1999.90;999.90;;;;;;;17.77;64.84;99959.19;10337121;28;20046;-66
2023/11/14 01:19:29;;;;;;;1999.90;999.90;;;;;;;17.63;65.65;99960.59;10336985;28;20148;-66
2023/11/14 01:24:32;;;;;;;1999.90;999.90;;;;;;;18.19;62.70;99970.88;10336817;28;20050;-66
2023/11/14 01:29:34;;;;;;;1999.90;999.90;;;;;;;17.96;63.37;99983.81;10336408;28;20474;-66
2023/11/14 01:34:37;;;;;;;1999.90;999.90;;;;;;;17.53;64.93;99974.88;10336404;28;20085;-65
2023/11/14 01:39:43;;;;;;;1999.90;999.90;;;;;;;18.73;63.82;99970.63;10318916;28;20050;-65
2023/11/14 01:44:46;;;;;;;1999.90;999.90;;;;;;;18.66;63.00;99986.34;10318932;28;20061;-65
2023/11/14 01:49:48;;;;;;;1999.90;999.90;;;;;;;18.08;64.69;99979.09;10335665;28;20053;-66
2023/11/14 01:54:50;;;;;;;1999.90;999.90;;;;;;;18.19;64.99;99984.13;10335375;28;20549;-65
2023/11/14 01:59:53;;;;;;;1999.90;999.90;;;;;;;18.52;64.41;99992.22;10335251;28;20561;-65
2023/11/14 02:04:56;;;;;;;1999.90;999.90;;;;;;;17.92;67.16;99988.59;10317970;28;20050;-66
2023/11/14 02:09:58;;;;;;;1999.90;999.90;;;;;;;17.98;66.14;100001.22;10317824;28;20050;-66
2023/11/14 02:15:04;;;;;;;1999.90;999.90;;;;;;;17.96;68.12;100029.66;10334710;28;20606;-65
2023/11/14 02:20:07;;;;;;;1999.90;999.90;;;;;;;17.76;67.69;100033.47;10334783;28;20121;-65
2023/11/14 02:25:10;;;;;;;1999.90;999.90;;;;;;;17.53;68.93;100055.09;10334374;28;20505;-66
2023/11/14 02:30:12;;;;;;;1999.90;999.90;;;;;;;18.27;65.49;100031.84;10316992;28;20538;-66
2023/11/14 02:35:15;;;;;;;1999.90;999.90;;;;;;;17.73;66.91;100020.53;10317188;28;20050;-66
2023/11/14 02:40:17;;;;;;;1999.90;999.90;;;;;;;17.41;68.35;100024.56;10333954;28;20046;-66
2023/11/14 02:45:21;;;;;;;1999.90;999.90;;;;;;;18.05;67.25;100035.84;10317017;28;20521;-65
2023/11/14 02:50:48;;;;;;;1999.90;999.90;;;;;;;18.11;66.77;100029.94;10333743;28;20125;-65
2023/11/14 02:55:52;;;;;;;1999.90;999.90;;;;;;;17.56;66.17;100041.56;10316817;28;20050;-66
2023/11/14 03:00:54;;;;;;;1999.90;999.90;;;;;;;18.62;64.64;100053.06;10333800;28;20129;-66
2023/11/14 03:06:02;;;;;;;1999.90;999.90;;;;;;;18.96;62.75;100039.00;10333507;28;20061;-66
2023/11/14 03:11:05;;;;;;;1999.90;999.90;;;;;;;17.64;67.26;100051.41;10316753;28;20555;-67
2023/11/14 03:16:13;;;;;;;1999.90;999.90;;;;;;;18.01;67.59;100045.94;10333508;28;20087;-65
2023/11/14 03:21:16;;;;;;;1999.90;999.90;;;;;;;17.77;67.99;100065.09;10316192;28;20073;-66
2023/11/14 03:26:19;;;;;;;1999.90;999.90;;;;;;;18.23;68.79;100085.31;10333396;28;20077;-65
2023/11/14 03:31:22;;;;;;;1999.90;999.90;;;;;;;18.20;67.42;100084.63;10318335;28;20170;-65
2023/11/14 03:36:25;;;;;;;1999.90;999.90;;;;;;;18.31;67.40;100091.50;10340714;28;20425;-65
2023/11/14 03:41:27;;;;;;;1999.90;999.90;;;;;;;17.96;68.23;100079.16;10340825;28;20125;-66
2023/11/14 03:46:29;;;;;;;1999.90;999.90;;;;;;;18.09;67.29;100079.59;10340508;28;20054;-65
2023/11/14 03:51:32;;;;;;;1999.90;999.90;;;;;;;17.99;67.84;100082.34;10339950;28;20138;-65
2023/11/14 03:56:34;;;;;;;1999.90;999.90;;;;;;;18.01;69.05;100076.88;10340256;28;20054;-65
2023/11/14 04:01:37;;;;;;;1999.90;999.90;;;;;;;18.66;67.12;100084.44;10339885;28;20054;-66
2023/11/14 04:06:39;;;;;;;1999.90;999.90;;;;;;;17.88;70.06;100079.09;10339872;28;20050;-65
2023/11/14 04:11:49;;;;;;;1999.90;999.90;;;;;;;18.35;68.18;100092.84;10322286;28;20389;-65
2023/11/14 04:16:52;;;;;;;1999.90;999.90;;;;;;;18.46;66.49;100094.41;10339508;28;20050;-65
2023/11/14 04:21:54;;;;;;;1999.90;999.90;;;;;;;17.93;68.86;100096.19;10339231;28;20081;-66
2023/11/14 04:26:59;;;;;;;1999.90;999.90;;;;;;;18.38;65.93;100091.72;10338037;28;20056;-65
2023/11/14 04:32:01;;;;;;;1999.90;999.90;;;;;;;17.94;68.36;100084.63;10338938;28;20078;-65
2023/11/14 04:37:04;;;;;;;1999.90;999.90;;;;;;;17.71;68.73;100086.84;10338580;28;20129;-65
2023/11/14 04:42:07;;;;;;;1999.90;999.90;;;;;;;18.33;67.21;100089.53;10337103;28;20129;-66
2023/11/14 04:47:10;;;;;;;1999.90;999.90;;;;;;;18.84;63.98;100100.28;10338198;28;20085;-66
2023/11/14 04:52:12;;;;;;;1999.90;999.90;;;;;;;18.92;64.43;100091.53;10337667;28;20442;-66
2023/11/14 04:57:15;;;;;;;1999.90;999.90;;;;;;;18.61;65.22;100086.72;10320694;28;20129;-65
2023/11/14 05:02:17;;;;;;;1999.90;999.90;;;;;;;18.55;65.67;100093.47;10320447;28;20065;-65
2023/11/14 05:07:19;;;;;;;1999.90;999.90;;;;;;;17.59;66.77;100091.53;10337594;28;20061;-66
2023/11/14 05:12:22;;;;;;;1999.90;999.90;;;;;;;18.68;65.44;100094.88;10337178;28;20049;-66
2023/11/14 05:17:24;;;;;;;1999.90;999.90;;;;;;;18.99;64.64;100103.16;10319810;28;20400;-66
2023/11/14 05:22:28;;;;;;;1999.90;999.90;;;;;;;18.43;65.71;100115.09;10336924;28;20108;-66
2023/11/14 05:27:30;;;;;;;1999.90;999.90;;;;;;;17.33;69.43;100130.31;10336628;28;20493;-66
2023/11/14 05:32:33;;;;;;;1999.90;999.90;;;;;;;18.22;67.17;100126.03;10336493;28;20050;-66
2023/11/14 05:37:35;;;;;;;1999.90;999.90;;;;;;;18.74;65.02;100136.66;10336190;28;20089;-66
2023/11/14 05:42:38;;;;;;;1999.90;999.90;;;;;;;18.12;66.89;100132.28;10336000;28;20054;-66
2023/11/14 05:47:41;;;;;;;1999.90;999.90;;;;;;;17.90;67.45;100117.66;10318512;28;20054;-66
2023/11/14 05:52:43;;;;;;;1999.90;999.90;;;;;;;18.48;64.28;100115.47;10334989;28;20053;-66
2023/11/14 05:57:46;;;;;;;1999.90;999.90;;;;;;;18.89;65.29;100113.88;10335520;28;20061;-66
2023/11/14 06:02:48;;;;;;;1999.90;999.90;;;;;;;17.26;67.19;100130.06;10335462;28;20054;-65
2023/11/14 06:07:51;;;;;;;1999.90;999.90;;;;;;;17.79;67.46;100113.41;10364751;23;20059;-65
2023/11/14 06:12:53;;;;;;;1999.90;999.90;;;;;;;17.76;69.49;100121.66;10375578;28;20140;-65
2023/11/14 06:17:56;;;;;;;1999.90;999.90;;;;;;;18.34;66.49;100128.31;10375612;28;20054;-65
2023/11/14 06:22:58;;;;;;;1999.90;999.90;;;;;;;17.88;68.07;100127.59;10375433;28;20042;-65
2023/11/14 06:28:01;;;;;;;1999.90;999.90;;;;;;;18.24;67.48;100147.91;10375305;28;20054;-66
2023/11/14 06:33:04;;;;;;;1999.90;999.90;;;;;;;18.22;67.14;100155.19;10374765;28;20404;-65
2023/11/14 06:38:06;;;;;;;1999.90;999.90;;;;;;;17.79;68.72;100161.06;10374859;28;20057;-65
2023/11/14 06:43:09;;;;;;;1999.90;999.90;;;;;;;18.63;65.89;100161.63;10357129;28;20045;-65
2023/11/14 06:48:12;;;;;;;1999.90;999.90;;;;;;;19.19;64.19;100171.91;10374492;28;20109;-65
2023/11/14 06:53:14;;;;;;;1999.90;999.90;;;;;;;18.14;66.66;100159.44;10374541;28;20129;-65
2023/11/14 06:58:17;;;;;;;1999.90;999.90;;;;;;;17.87;66.42;100165.66;10374350;28;20077;-65
2023/11/14 07:03:19;;;;;;;1999.90;999.90;;;;;;;17.61;67.48;100168.16;10374439;28;20050;-65
2023/11/14 07:08:22;;;;;;;1999.90;999.90;;;;;;;17.84;66.82;100192.41;10380509;28;20057;-65
2023/11/14 07:13:24;;;;;;;1999.90;999.90;;;;;;;17.43;70.73;100176.06;10382230;28;20489;-65
2023/11/14 07:18:26;;;;;;;1999.90;999.90;;;;;;;17.35;71.12;100175.97;10382225;28;20049;-65
2023/11/14 07:23:29;;;;;;;1999.90;999.90;;;;;;;17.38;70.06;100178.31;10364525;28;20096;-65
2023/11/14 07:28:33;;;;;;;1999.90;999.90;;;;;;;17.66;70.28;100170.38;10382071;28;20050;-65
2023/11/14 07:33:35;;;;;;;1999.90;999.90;;;;;;;17.94;70.42;100172.00;10381769;28;20045;-65
2023/11/14 07:38:38;;;;;;;1999.90;999.90;;;;;;;17.61;70.80;100181.41;10381483;28;20517;-66
2023/11/14 07:43:41;;;;;;;1999.90;999.90;;;;;;;17.06;72.88;100196.28;10381442;28;20053;-66
2023/11/14 07:48:43;;;;;;;1999.90;999.90;;;;;;;17.49;73.53;100178.13;10363673;28;20382;-65
2023/11/14 07:53:46;;;;;;;1999.90;999.90;;;;;;;17.53;71.66;100181.28;10380820;28;20585;-66
2023/11/14 07:58:49;;;;;;;1999.90;999.90;;;;;;;18.26;69.96;100164.50;10380835;28;20050;-65
2023/11/14 08:03:52;;;;;;;1999.90;999.90;;;;;;;17.94;72.88;100165.88;10380806;28;20050;-65
2023/11/14 08:08:56;;;;;;;1999.90;999.90;;;;;;;17.57;71.31;100172.09;10380138;28;20054;-66
2023/11/14 08:13:58;;;;;;;1999.90;999.90;;;;;;;17.94;71.31;100173.84;10380104;28;20484;-66
2023/11/14 08:19:02;;;;;;;1999.90;999.90;;;;;;;16.97;74.17;100183.09;10379834;28;20057;-66
2023/11/14 08:24:04;;;;;;;1999.90;999.90;;;;;;;17.49;73.27;100187.88;10379856;28;20057;-65
2023/11/14 08:29:07;;;;;;;1999.90;999.90;;;;;;;18.06;70.65;100190.31;10379668;28;20077;-66
2023/11/14 08:34:09;;;;;;;1999.90;999.90;;;;;;;17.90;71.02;100188.34;10379496;28;20061;-65
2023/11/14 08:39:13;;;;;;;1999.90;999.90;;;;;;;17.74;70.34;100181.88;10378258;28;20141;-65
2023/11/14 08:44:16;;;;;;;1999.90;999.90;;;;;;;17.85;69.77;100188.75;10379115;28;20132;-65
2023/11/14 08:49:18;;;;;;;1999.90;999.90;;;;;;;18.09;68.66;100182.91;10378659;28;20045;-65
2023/11/14 08:54:21;;;;;;;1999.90;999.90;;;;;;;17.51;70.81;100192.03;10378763;28;20050;-65
2023/11/14 08:59:23;;;;;;;1999.90;999.90;;;;;;;19.01;67.21;100190.53;10378402;28;20054;-65
2023/11/14 09:04:26;;;;;;;1999.90;999.90;;;;;;;19.26;65.94;100187.00;10361098;28;20056;-65
2023/11/14 09:09:28;;;;;;;1999.90;999.90;;;;;;;18.16;69.45;100183.94;10376685;28;20065;-65
2023/11/14 09:14:30;;;;;;;1999.90;999.90;;;;;;;17.94;68.48;100201.13;10413455;28;20046;-66
2023/11/14 09:19:33;;;;;;;1999.90;999.90;;;;;;;18.90;67.70;100195.13;10418524;28;20053;-66
2023/11/14 09:24:35;;;;;;;1999.90;999.90;;;;;;;18.47;68.04;100201.25;10417687;28;20053;-66
2023/11/14 09:29:37;;;;;;;1999.90;999.90;;;;;;;18.36;67.38;100197.88;10395497;28;20386;-66
2023/11/14 09:34:40;;;;;;;1999.90;999.90;;;;;;;19.26;67.12;100199.44;10375671;28;20507;-65
2023/11/14 09:39:42;;;;;;;1999.90;999.90;;;;;;;18.52;66.90;100202.44;10376996;28;20125;-66
2023/11/14 09:44:45;;;;;;;1999.90;999.90;;;;;;;18.69;67.35;100199.94;10376686;28;20045;-66
2023/11/14 09:49:49;;;;;;;1999.90;999.90;;;;;;;18.36;69.49;100208.47;10376353;28;20061;-66
2023/11/14 09:54:51;;;;;;;1999.90;999.90;;;;;;;19.43;64.67;100221.59;10375162;28;20053;-66
2023/11/14 09:59:54;;;;;;;1999.90;999.90;;;;;;;19.01;66.96;100217.88;10376001;28;20077;-66
2023/11/14 10:04:57;;;;;;;1999.90;999.90;;;;;;;19.28;65.09;100230.16;10357586;28;20050;-66
2023/11/14 10:10:13;;;;;;;1999.90;999.90;;;;;;;19.78;64.12;100222.41;10375129;28;20088;-66
2023/11/14 10:15:30;;;;;;;1999.90;999.90;;;;;;;19.23;65.76;100235.13;10374698;28;20137;-66
2023/11/14 10:20:40;;;;;;;1999.90;999.90;;;;;;;19.08;67.41;100234.00;10356441;28;20046;-66
2023/11/14 10:25:49;;;;;;;1999.90;999.90;;;;;;;19.26;64.53;100236.59;10375180;28;20072;-66
2023/11/14 10:30:56;;;;;;;1999.90;999.90;;;;;;;18.61;66.66;100229.88;10374942;28;20077;-66
2023/11/14 10:36:18;;;;;;;1999.90;999.90;;;;;;;19.48;63.02;100221.94;10375127;28;20056;-66
2023/11/14 10:41:24;;;;;;;1999.90;999.90;;;;;;;18.89;64.18;100219.97;10374631;28;20398;-66
2023/11/14 10:46:27;;;;;;;1999.90;999.90;;;;;;;18.67;67.31;100221.28;10374592;28;20116;-66
2023/11/14 10:51:33;;;;;;;1999.90;999.90;;;;;;;18.94;66.50;100206.25;10374397;28;20064;-66
2023/11/14 10:56:36;;;;;;;1999.90;999.90;;;;;;;20.06;61.84;100193.72;10374381;28;20497;-68
2023/11/14 11:01:51;;;;;;;1999.90;999.90;;;;;;;20.16;61.96;100183.78;10374260;28;20046;-66
2023/11/14 11:06:53;;;;;;;1999.90;999.90;;;;;;;20.14;61.82;100168.97;10356563;28;20092;-66
2023/11/14 11:11:58;;;;;;;1999.90;999.90;;;;;;;20.30;61.63;100168.97;10356653;28;20125;-66
2023/11/14 11:17:00;;;;;;;1999.90;999.90;;;;;;;20.64;60.55;100159.19;10374900;28;20050;-65
2023/11/14 11:22:06;;;;;;;1999.90;999.90;;;;;;;20.91;60.89;100149.97;10340742;28;20046;-65
2023/11/14 11:27:20;;;;;;;1999.90;999.90;;;;;;;20.65;60.99;100147.56;10352876;28;20042;-65
2023/11/14 11:32:28;;;;;;;1999.90;999.90;;;;;;;19.70;62.73;100155.94;10369666;28;20052;-66
2023/11/14 11:37:47;;;;;;;1999.90;999.90;;;;;;;19.82;62.58;100157.31;10352063;28;20525;-66
2023/11/14 11:42:49;;;;;;;1999.90;999.90;;;;;;;20.49;60.83;100151.84;10356135;28;20046;-66
2023/11/14 11:47:52;;;;;;;1999.90;999.90;;;;;;;20.21;60.45;100149.56;10356335;28;20050;-66
2023/11/14 11:53:02;;;;;;;1999.90;999.90;;;;;;;21.09;59.49;100139.09;10359488;28;20046;-66
2023/11/14 11:58:07;;;;;;;1999.90;999.90;;;;;;;19.46;64.09;100155.72;10363646;28;20085;-66
2023/11/14 12:03:12;;;;;;;1999.90;999.90;;;;;;;20.33;61.44;100141.25;10363635;28;20046;-66
2023/11/14 12:08:15;;;;;;;1999.90;999.90;;;;;;;20.11;61.54;100140.09;10380452;28;20064;-66
2023/11/14 12:13:18;;;;;;;1999.90;999.90;;;;;;;19.86;60.63;100126.81;10380143;28;20050;-66
2023/11/14 12:18:20;;;;;;;1999.90;999.90;;;;;;;20.24;60.97;100116.50;10380276;28;20124;-66
2023/11/14 12:23:23;;;;;;;1999.90;999.90;;;;;;;19.38;61.57;100123.84;10379889;28;20116;-66
2023/11/14 12:28:25;;;;;;;1999.90;999.90;;;;;;;20.62;60.03;100119.41;10362335;28;20049;-66
2023/11/14 12:33:28;;;;;;;1999.90;999.90;;;;;;;19.61;62.14;100125.91;10379537;28;20052;-66
2023/11/14 12:38:34;;;;;;;1999.90;999.90;;;;;;;19.64;63.89;100107.00;10379229;28;20068;-65
2023/11/14 12:43:37;;;;;;;1999.90;999.90;;;;;;;19.53;64.42;100102.81;10379328;28;20092;-66
2023/11/14 12:48:39;;;;;;;1999.90;999.90;;;;;;;19.18;65.48;100091.47;10361395;28;20531;-66
2023/11/14 12:53:42;;;;;;;1999.90;999.90;;;;;;;19.21;65.86;100077.84;10378763;28;20054;-66
2023/11/14 12:58:44;;;;;;;1999.90;999.90;;;;;;;19.58;63.36;100067.81;10361317;28;20061;-66
2023/11/14 13:03:47;;;;;;;1999.90;999.90;;;;;;;19.13;62.13;100075.16;10377154;28;20057;-66
2023/11/14 13:08:49;;;;;;;1999.90;999.90;;;;;;;19.57;63.08;100061.69;10359215;28;20054;-66
2023/11/14 13:13:51;;;;;;;1999.90;999.90;;;;;;;19.13;63.84;100072.53;10375732;28;20046;-65
2023/11/14 13:18:54;;;;;;;1999.90;999.90;;;;;;;18.84;64.09;100071.09;10375888;28;20050;-66
2023/11/14 13:23:57;;;;;;;1999.90;999.90;;;;;;;19.01;63.15;100048.13;10358397;28;20053;-65
2023/11/14 13:28:59;;;;;;;1999.90;999.90;;;;;;;19.19;63.39;100039.22;10375539;28;20046;-65
2023/11/14 13:34:02;;;;;;;1999.90;999.90;;;;;;;19.26;63.02;100027.78;10375260;28;20104;-66
2023/11/14 13:39:06;;;;;;;1999.90;999.90;;;;;;;19.04;62.80;100042.50;10375152;28;20381;-66
2023/11/14 13:44:08;;;;;;;1999.90;999.90;;;;;;;20.27;59.97;100032.94;10375102;28;20378;-66
2023/11/14 13:49:12;;;;;;;1999.90;999.90;;;;;;;18.58;63.73;100036.66;10374742;28;20608;-66
2023/11/14 13:54:19;;;;;;;1999.90;999.90;;;;;;;19.52;61.12;100026.84;10374800;28;20130;-66
2023/11/14 13:59:25;;;;;;;1999.90;999.90;;;;;;;19.62;61.33;100039.94;10374467;28;20057;-66
2023/11/14 14:04:28;;;;;;;1999.90;999.90;;;;;;;19.31;64.43;100032.59;10357779;28;20133;-66
2023/11/14 14:09:33;;;;;;;1999.90;999.90;;;;;;;18.06;68.54;100048.13;10334762;28;1176319;-65
2023/11/14 14:14:39;;;;;;;1999.90;999.90;;;;;;;19.67;64.36;100035.78;10375356;28;20046;-66
2023/11/14 14:19:45;;;;;;;1999.90;999.90;;;;;;;19.61;63.85;100022.34;10358229;28;20046;-66
2023/11/14 14:24:50;;;;;;;1999.90;999.90;;;;;;;19.93;62.62;100015.41;10375381;28;20057;-66
2023/11/14 14:29:53;;;;;;;1999.90;999.90;;;;;;;19.44;65.02;100011.72;10375197;28;20050;-66
2023/11/14 14:34:56;;;;;;;1999.90;999.90;;;;;;;19.90;62.90;99995.28;10375054;28;20050;-66
2023/11/14 14:39:58;;;;;;;1999.90;999.90;;;;;;;18.63;68.32;100002.56;10374854;28;20497;-66
2023/11/14 14:45:01;;;;;;;1999.90;999.90;;;;;;;18.69;66.61;99990.47;10374812;28;20074;-66
2023/11/14 14:50:05;;;;;;;1999.90;999.90;;;;;;;19.01;65.47;99988.94;10374446;28;20485;-66
2023/11/14 14:55:10;;;;;;;1999.90;999.90;;;;;;;18.55;68.30;99992.72;10357317;28;20144;-66
2023/11/14 15:00:18;;;;;;;1999.90;999.90;;;;;;;18.16;65.91;99984.44;10374307;28;20401;-66
2023/11/14 15:05:22;;;;;;;1999.90;999.90;;;;;;;18.44;65.77;99981.59;10357494;28;20543;-66
2023/11/14 15:10:25;;;;;;;1999.90;999.90;;;;;;;17.51;68.21;99982.13;10357009;28;20052;-66
2023/11/14 15:15:27;;;;;;;1999.90;999.90;;;;;;;18.72;64.56;99972.41;10356612;28;20132;-66
2023/11/14 15:20:30;;;;;;;1999.90;999.90;;;;;;;18.24;65.61;99973.03;10356653;28;20060;-66
2023/11/14 15:25:33;;;;;;;1999.90;999.90;;;;;;;18.31;65.28;99963.50;10356647;28;20100;-65
2023/11/14 15:30:36;;;;;;;1999.90;999.90;;;;;;;18.81;65.33;99962.69;10382016;28;20409;-66
2023/11/14 15:35:39;;;;;;;1999.90;999.90;;;;;;;18.11;67.18;99968.19;10381695;28;20046;-65
2023/11/14 15:40:42;;;;;;;1999.90;999.90;;;;;;;18.03;66.51;99966.31;10381603;28;20508;-65
2023/11/14 15:45:45;;;;;;;1999.90;999.90;;;;;;;17.92;67.88;99967.44;10381257;28;20076;-65
2023/11/14 15:50:52;;;;;;;1999.90;999.90;;;;;;;18.73;64.70;99962.66;10381339;28;20046;-65
2023/11/14 15:55:55;;;;;;;1999.90;999.90;;;;;;;18.12;67.09;99970.69;10381162;28;20056;-65
2023/11/14 16:00:57;;;;;;;1999.90;999.90;;;;;;;18.52;65.27;99952.47;10380764;28;20046;-66
2023/11/14 16:06:02;;;;;;;1999.90;999.90;;;;;;;18.53;65.42;99954.13;10380621;28;20085;-65
2023/11/14 16:11:05;;;;;;;1999.90;999.90;;;;;;;17.74;66.97;99948.91;10380281;28;20077;-65
2023/11/14 16:16:08;;;;;;;1999.90;999.90;;;;;;;18.43;64.35;99940.19;10363413;28;20057;-65
2023/11/14 16:21:11;;;;;;;1999.90;999.90;;;;;;;18.65;64.17;99934.28;10380012;28;20054;-65
2023/11/14 16:26:14;;;;;;;1999.90;999.90;;;;;;;18.37;64.52;99939.00;10379930;28;20050;-65
2023/11/14 16:31:17;;;;;;;1999.90;999.90;;;;;;;18.37;65.05;99939.00;10379520;28;20129;-65
2023/11/14 16:36:23;;;;;;;1999.90;999.90;;;;;;;18.66;64.04;99927.16;10362635;28;20128;-65
2023/11/14 16:41:26;;;;;;;1999.90;999.90;;;;;;;18.53;64.26;99931.09;10361835;28;20046;-66
2023/11/14 16:46:28;;;;;;;1999.90;999.90;;;;;;;18.80;63.46;99928.38;10345636;28;20064;-66
2023/11/14 16:51:32;;;;;;;1999.90;999.90;;;;;;;18.68;62.62;99922.53;10378777;28;20046;-66
2023/11/14 16:56:34;;;;;;;1999.90;999.90;;;;;;;18.48;64.75;99914.03;10378602;28;20065;-65
2023/11/14 17:01:37;;;;;;;1999.90;999.90;;;;;;;17.88;67.07;99915.75;10361256;28;20047;-65
2023/11/14 17:06:39;;;;;;;1999.90;999.90;;;;;;;18.48;64.39;99900.78;10378171;28;20065;-65
2023/11/14 17:11:41;;;;;;;1999.90;999.90;;;;;;;17.78;67.14;99902.59;10360732;28;20470;-65
2023/11/14 17:16:44;;;;;;;1999.90;999.90;;;;;;;17.81;67.40;99906.75;10377855;28;20054;-65
2023/11/14 17:21:46;;;;;;;1999.90;999.90;;;;;;;18.12;65.10;99906.25;10377734;28;20129;-66
2023/11/14 17:26:48;;;;;;;1999.90;999.90;;;;;;;17.25;69.68;99907.03;10377759;28;20064;-65
2023/11/14 17:31:52;;;;;;;1999.90;999.90;;;;;;;17.79;66.64;99917.50;10377162;28;20050;-65
2023/11/14 17:36:56;;;;;;;1999.90;999.90;;;;;;;17.48;69.66;99917.09;10377032;28;20046;-65
2023/11/14 17:41:59;;;;;;;1999.90;999.90;;;;;;;18.16;66.96;99918.22;10377009;28;20050;-66
2023/11/14 17:47:09;;;;;;;1999.90;999.90;;;;;;;18.77;64.59;99918.09;10376634;28;20400;-66
2023/11/14 17:52:12;;;;;;;1999.90;999.90;;;;;;;17.93;66.13;99920.59;10376166;28;20129;-66
2023/11/14 17:57:15;;;;;;;1999.90;999.90;;;;;;;17.70;67.62;99925.53;10376374;28;20078;-66
2023/11/14 18:02:18;;;;;;;1999.90;999.90;;;;;;;17.61;68.90;99925.47;10376333;28;20049;-65
2023/11/14 18:07:20;;;;;;;1999.90;999.90;;;;;;;17.04;69.69;99927.66;10375688;28;20520;-65
2023/11/14 18:12:23;;;;;;;1999.90;999.90;;;;;;;17.79;68.13;99917.50;10376003;28;20056;-65
2023/11/14 18:17:25;;;;;;;1999.90;999.90;;;;;;;17.49;67.84;99926.72;10375719;28;20080;-65
2023/11/14 18:22:28;;;;;;;1999.90;999.90;;;;;;;16.69;72.97;99930.13;10383089;23;20137;-66
2023/11/14 18:27:31;;;;;;;1999.90;999.90;;;;;;;16.24;76.13;99941.47;10374313;28;20134;-66
2023/11/14 18:32:33;;;;;;;1999.90;999.90;;;;;;;17.00;70.94;99947.47;10374992;28;20045;-66
2023/11/14 18:37:40;;;;;;;1999.90;999.90;;;;;;;16.89;72.95;99949.34;10373867;28;20058;-66
2023/11/14 18:42:43;;;;;;;1999.90;999.90;;;;;;;16.18;74.27;99967.63;10374939;28;20069;-66
2023/11/14 18:47:45;;;;;;;1999.90;999.90;;;;;;;16.46;75.34;99981.69;10373544;28;20104;-66
2023/11/14 18:52:47;;;;;;;1999.90;999.90;;;;;;;16.31;74.30;99986.63;10374650;28;20048;-66
2023/11/14 18:57:50;;;;;;;1999.90;999.90;;;;;;;16.69;72.92;100001.47;10374352;28;20057;-66
2023/11/14 19:02:52;;;;;;;1999.90;999.90;;;;;;;16.23;76.06;100024.31;10372514;28;20078;-66
2023/11/14 19:07:55;;;;;;;1999.90;999.90;;;;;;;15.98;77.85;100016.03;10374349;28;20050;-66
2023/11/14 19:12:57;;;;;;;1999.90;999.90;;;;;;;16.33;75.92;100032.22;10374033;28;20140;-67
2023/11/14 19:18:00;;;;;;;1999.90;999.90;;;;;;;15.96;77.31;100033.81;10373039;28;20054;-67
2023/11/14 19:23:04;;;;;;;1999.90;999.90;;;;;;;16.29;76.99;100049.31;10373743;28;20125;-67
2023/11/14 19:28:26;;;;;;;1999.90;999.90;;;;;;;16.19;77.38;100059.06;10373882;28;20054;-67
2023/11/14 19:33:29;;;;;;;1999.90;999.90;;;;;;;16.07;78.57;100064.53;10373527;28;20397;-67
2023/11/14 19:38:32;;;;;;;1999.90;999.90;;;;;;;16.50;76.23;100078.19;10373753;28;20052;-67
2023/11/14 19:43:36;;;;;;;1999.90;999.90;;;;;;;15.75;79.20;100080.63;10372584;28;20137;-67
2023/11/14 19:48:38;;;;;;;1999.90;999.90;;;;;;;16.14;77.98;100099.13;10373684;28;20060;-66
2023/11/14 19:53:41;;;;;;;1999.90;999.90;;;;;;;16.41;77.28;100108.09;10373216;28;20077;-67
2023/11/14 19:58:44;;;;;;;1999.90;999.90;;;;;;;15.74;79.25;100129.09;10373289;28;20509;-66
2023/11/14 20:03:47;;;;;;;1999.90;999.90;;;;;;;16.35;77.54;100135.91;10373363;28;20046;-67
2023/11/14 20:08:49;;;;;;;1999.90;999.90;;;;;;;15.92;78.86;100153.03;10371806;28;20412;-66
2023/11/14 20:13:52;;;;;;;1999.90;999.90;;;;;;;16.43;78.39;100154.53;10376217;28;20408;-67
2023/11/14 20:18:54;;;;;;;1999.90;999.90;;;;;;;16.16;78.43;100165.81;10380250;28;20080;-67
2023/11/14 20:23:57;;;;;;;1999.90;999.90;;;;;;;16.60;75.54;100176.75;10379796;28;20064;-67
2023/11/14 20:29:01;;;;;;;1999.90;999.90;;;;;;;16.53;76.50;100194.16;10379737;28;20053;-66
2023/11/14 20:34:03;;;;;;;1999.90;999.90;;;;;;;16.32;77.18;100210.16;10379527;28;20408;-66
2023/11/14 20:39:14;;;;;;;1999.90;999.90;;;;;;;16.04;78.41;100228.50;10378419;28;20064;-66
2023/11/14 20:44:17;;;;;;;1999.90;999.90;;;;;;;16.73;74.70;100231.97;10379342;28;20050;-67
2023/11/14 20:49:20;;;;;;;1999.90;999.90;;;;;;;16.71;76.82;100236.56;10378057;28;20148;-67
2023/11/14 20:54:23;;;;;;;1999.90;999.90;;;;;;;16.45;77.41;100236.31;10377671;28;20128;-67
2023/11/14 20:59:26;;;;;;;1999.90;999.90;;;;;;;16.87;75.32;100257.16;10378567;28;20053;-66
2023/11/14 21:04:28;;;;;;;1999.90;999.90;;;;;;;16.28;77.75;100264.25;10378571;28;20053;-67
2023/11/14 21:09:31;;;;;;;1999.90;999.90;;;;;;;16.07;78.45;100277.53;10378223;28;20100;-67
2023/11/14 21:14:33;;;;;;;1999.90;999.90;;;;;;;16.62;75.86;100287.59;10377863;28;20050;-67
2023/11/14 21:19:35;;;;;;;1999.90;999.90;;;;;;;16.97;75.47;100291.50;10377801;28;20053;-67
2023/11/14 21:24:41;;;;;;;1999.90;999.90;;;;;;;17.25;74.27;100313.59;10376603;28;20054;-66
2023/11/14 21:29:46;;;;;;;1999.90;999.90;;;;;;;16.38;75.51;100311.81;10377837;28;20057;-67
2023/11/14 21:34:48;;;;;;;1999.90;999.90;;;;;;;16.39;78.98;100310.81;10377441;28;20052;-67
2023/11/14 21:39:50;;;;;;;1999.90;999.90;;;;;;;16.23;79.19;100330.69;10377140;28;20054;-67
2023/11/14 21:44:53;;;;;;;1999.90;999.90;;;;;;;16.14;81.28;100342.91;10376830;28;20128;-67
2023/11/14 21:49:55;;;;;;;1999.90;999.90;;;;;;;16.71;77.36;100353.69;10376647;28;20436;-66
2023/11/14 21:54:58;;;;;;;1999.90;999.90;;;;;;;16.42;79.51;100372.13;10375125;28;20132;-67
2023/11/14 22:00:00;;;;;;;1999.90;999.90;;;;;;;15.87;83.22;100374.34;10375114;28;20054;-67
2023/11/14 22:05:03;;;;;;;1999.90;999.90;;;;;;;16.76;77.89;100390.28;10375981;28;20481;-67